createdAt,value
2023-06-28T00:01:38.022Z,100183.41
2023-06-28T00:04:06.569Z,100181.81
2023-06-28T00:06:34.065Z,100179.67
2023-06-28T00:09:02.862Z,100182.67
2023-06-28T00:11:30.770Z,100183.21
2023-06-28T00:13:58.902Z,100184.48
2023-06-28T00:16:26.450Z,100178.55
2023-06-28T00:19:01.056Z,100184.15
2023-06-28T00:21:29.347Z,100175.26
2023-06-28T00:24:00.822Z,100170.86
2023-06-28T00:26:28.691Z,100168.73
2023-06-28T00:28:57.018Z,100170.88
2023-06-28T00:31:26.922Z,100168.93
2023-06-28T00:33:58.246Z,100163.44
2023-06-28T00:36:26.173Z,100154.94
2023-06-28T00:38:54.876Z,100154.77
2023-06-28T00:41:23.248Z,100155.88
2023-06-28T00:43:50.725Z,100159.08
2023-06-28T00:46:19.279Z,100152.19
2023-06-28T00:48:46.707Z,100152.15
2023-06-28T00:51:14.916Z,100155.86
2023-06-28T00:53:42.725Z,100154.11
2023-06-28T00:56:10.868Z,100155.02
2023-06-28T00:58:38.161Z,100149.70
2023-06-28T01:01:07.250Z,100153.26
2023-06-28T01:03:36.641Z,100149.89
2023-06-28T01:06:06.077Z,100147.97
2023-06-28T01:08:36.162Z,100147.81
2023-06-28T01:11:05.304Z,100146.21
2023-06-28T01:13:36.569Z,100144.84
2023-06-28T01:16:06.943Z,100137.77
2023-06-28T01:18:35.189Z,100135.10
2023-06-28T01:21:06.661Z,100133.09
2023-06-28T01:23:36.312Z,100130.63
2023-06-28T01:26:04.665Z,100127.28
2023-06-28T01:28:32.733Z,100133.45
2023-06-28T01:31:01.713Z,100131.65
2023-06-28T01:33:30.412Z,100128.50
2023-06-28T01:35:58.838Z,100127.63
2023-06-28T01:38:29.686Z,100129.90
2023-06-28T01:40:59.330Z,100127.26
2023-06-28T01:43:28.168Z,100127.48
2023-06-28T01:45:59.299Z,100132.19
2023-06-28T01:48:28.427Z,100128.16
2023-06-28T01:50:58.265Z,100126.94
2023-06-28T01:53:26.639Z,100129.30
2023-06-28T01:55:55.001Z,100132.81
2023-06-28T01:58:24.028Z,100131.86
2023-06-28T02:00:51.855Z,100131.39
2023-06-28T02:03:20.418Z,100130.13
2023-06-28T02:05:48.268Z,100129.77
2023-06-28T02:08:17.133Z,100137.02
2023-06-28T02:10:45.967Z,100135.11
2023-06-28T02:13:14.579Z,100140.70
2023-06-28T02:15:43.098Z,100140.52
2023-06-28T02:18:12.272Z,100139.77
2023-06-28T02:20:40.723Z,100145.46
2023-06-28T02:23:10.510Z,100144.80
2023-06-28T02:25:38.924Z,100147.89
2023-06-28T02:28:06.593Z,100144.77
2023-06-28T02:30:34.429Z,100148.79
2023-06-28T02:33:02.648Z,100150.91
2023-06-28T02:35:32.221Z,100153.25
2023-06-28T02:38:00.098Z,100153.60
2023-06-28T02:40:28.385Z,100156.98
2023-06-28T02:42:56.642Z,100156.94
2023-06-28T02:45:24.559Z,100158.70
2023-06-28T02:47:55.075Z,100166.98
2023-06-28T02:50:25.158Z,100160.27
2023-06-28T02:53:04.241Z,100156.57
2023-06-28T02:55:33.210Z,100158.11
2023-06-28T02:58:05.470Z,100164.80
2023-06-28T03:00:34.815Z,100160.19
2023-06-28T03:03:04.665Z,100159.08
2023-06-28T03:05:33.658Z,100156.08
2023-06-28T03:08:02.269Z,100147.26
2023-06-28T03:10:33.227Z,100141.48
2023-06-28T03:13:01.963Z,100130.55
2023-06-28T03:15:30.143Z,100127.75
2023-06-28T03:17:58.503Z,100130.69
2023-06-28T03:20:28.420Z,100130.16
2023-06-28T03:22:57.781Z,100129.73
2023-06-28T03:25:25.790Z,100128.01
2023-06-28T03:27:53.992Z,100131.87
2023-06-28T03:30:22.175Z,100136.98
2023-06-28T03:32:50.272Z,100136.95
2023-06-28T03:35:18.765Z,100139.80
2023-06-28T03:37:51.545Z,100135.41
2023-06-28T03:40:19.693Z,100130.19
2023-06-28T03:42:49.380Z,100123.95
2023-06-28T03:45:18.585Z,100127.41
2023-06-28T03:47:49.870Z,100127.17
2023-06-28T03:50:17.808Z,100128.30
2023-06-28T03:52:45.525Z,100128.09
2023-06-28T03:55:14.109Z,100127.92
2023-06-28T03:57:43.177Z,100133.27
2023-06-28T04:00:12.930Z,100130.44
2023-06-28T04:02:41.533Z,100132.31
2023-06-28T04:05:11.915Z,100132.95
2023-06-28T04:07:41.364Z,100134.32
2023-06-28T04:10:11.160Z,100138.12
2023-06-28T04:12:40.691Z,100138.65
2023-06-28T04:15:10.571Z,100139.27
2023-06-28T04:17:37.991Z,100138.20
2023-06-28T04:20:07.855Z,100133.05
2023-06-28T04:22:35.619Z,100136.64
2023-06-28T04:25:04.026Z,100136.04
2023-06-28T04:27:31.846Z,100135.78
2023-06-28T04:29:59.460Z,100135.14
2023-06-28T04:32:27.487Z,100134.32
2023-06-28T04:34:56.860Z,100131.79
2023-06-28T04:37:28.444Z,100135.52
2023-06-28T04:39:58.051Z,100136.37
2023-06-28T04:42:26.571Z,100129.68
2023-06-28T04:45:00.169Z,100129.98
2023-06-28T04:47:30.713Z,100133.20
2023-06-28T04:49:59.790Z,100130.38
2023-06-28T04:52:28.902Z,100125.02
2023-06-28T04:55:00.134Z,100126.30
2023-06-28T04:57:28.770Z,100124.00
2023-06-28T04:59:58.123Z,100122.29
2023-06-28T05:02:26.063Z,100123.79
2023-06-28T05:04:53.790Z,100125.63
2023-06-28T05:07:21.372Z,100133.23
2023-06-28T05:09:50.000Z,100126.37
2023-06-28T05:12:17.460Z,100129.27
2023-06-28T05:14:45.576Z,100128.94
2023-06-28T05:17:13.681Z,100131.38
2023-06-28T05:19:41.491Z,100127.27
2023-06-28T05:22:09.530Z,100124.01
2023-06-28T05:24:37.025Z,100127.81
2023-06-28T05:27:04.315Z,100134.27
2023-06-28T05:29:32.422Z,100133.80
2023-06-28T05:32:00.062Z,100134.69
2023-06-28T05:34:29.057Z,100141.96
2023-06-28T05:36:56.625Z,100132.62
2023-06-28T05:39:24.423Z,100141.54
2023-06-28T05:41:53.036Z,100144.77
2023-06-28T05:44:21.969Z,100149.58
2023-06-28T05:46:50.479Z,100145.95
2023-06-28T05:49:18.437Z,100147.70
2023-06-28T05:51:46.429Z,100148.59
2023-06-28T05:54:13.895Z,100149.16
2023-06-28T05:56:42.176Z,100143.63
2023-06-28T05:59:09.465Z,100146.22
2023-06-28T06:01:37.311Z,100141.38
2023-06-28T06:04:04.836Z,100145.19
2023-06-28T06:06:33.761Z,100145.93
2023-06-28T06:09:01.449Z,100146.38
2023-06-28T06:11:29.405Z,100146.85
2023-06-28T06:13:57.623Z,100142.33
2023-06-28T06:16:26.139Z,100148.66
2023-06-28T06:18:53.962Z,100141.91
2023-06-28T06:21:22.380Z,100145.84
2023-06-28T06:23:49.910Z,100140.14
2023-06-28T06:26:17.244Z,100144.48
2023-06-28T06:28:45.659Z,100145.79
2023-06-28T06:31:15.840Z,100139.95
2023-06-28T06:33:43.859Z,100138.02
2023-06-28T06:36:12.241Z,100133.61
2023-06-28T06:38:41.668Z,100134.43
2023-06-28T06:41:09.920Z,100138.45
2023-06-28T06:43:39.337Z,100137.30
2023-06-28T06:46:07.324Z,100141.34
2023-06-28T06:48:34.880Z,100147.98
2023-06-28T06:54:08.365Z,100148.90
2023-06-28T07:01:00.298Z,100148.42
2023-06-28T07:04:09.518Z,100147.89
2023-06-28T07:07:04.451Z,100145.55
2023-06-28T07:10:21.184Z,100145.76
2023-06-28T07:13:02.449Z,100146.96
2023-06-28T07:22:41.547Z,100146.46
2023-06-28T07:25:12.440Z,100146.61
2023-06-28T07:27:40.470Z,100146.43
2023-06-28T07:30:10.556Z,100150.20
2023-06-28T07:32:39.020Z,100146.73
2023-06-28T07:35:07.262Z,100146.78
2023-06-28T07:37:35.696Z,100151.52
2023-06-28T07:40:04.601Z,100151.48
2023-06-28T07:42:33.404Z,100150.95
2023-06-28T07:45:02.292Z,100151.40
2023-06-28T07:47:30.945Z,100151.45
2023-06-28T07:50:00.035Z,100159.38
2023-06-28T07:52:35.296Z,100160.74
2023-06-28T08:07:07.996Z,100164.20
2023-06-28T08:10:03.009Z,100164.85
2023-06-28T08:12:34.580Z,100166.55
2023-06-28T08:15:03.858Z,100167.50
2023-06-28T08:17:34.552Z,100163.55
2023-06-28T08:20:05.010Z,100166.96
2023-06-28T08:25:29.667Z,100161.17
2023-06-28T08:34:30.937Z,100157.60
2023-06-28T08:37:26.346Z,100163.14
2023-06-28T08:40:07.792Z,100165.61
2023-06-28T08:42:35.528Z,100163.92
2023-06-28T08:45:06.861Z,100163.98
2023-06-28T08:56:30.892Z,100163.81
2023-06-28T08:59:10.454Z,100165.98
2023-06-28T09:08:35.322Z,100164.75
2023-06-28T09:11:10.139Z,100169.41
2023-06-28T09:13:57.149Z,100169.48
2023-06-28T09:16:25.471Z,100166.38
2023-06-28T09:18:53.635Z,100171.90
2023-06-28T09:21:31.044Z,100167.62
2023-06-28T09:24:13.438Z,100165.73
2023-06-28T09:26:48.042Z,100165.70
2023-06-28T09:29:16.300Z,100163.30
2023-06-28T09:31:47.453Z,100168.37
2023-06-28T09:34:22.558Z,100169.02
2023-06-28T09:36:56.506Z,100165.35
2023-06-28T09:39:28.457Z,100170.83
2023-06-28T09:41:56.459Z,100169.87
2023-06-28T09:44:31.139Z,100171.66
2023-06-28T09:47:05.732Z,100168.85
2023-06-28T09:49:34.040Z,100169.77
2023-06-28T09:52:03.709Z,100174.23
2023-06-28T09:54:35.706Z,100172.23
2023-06-28T09:57:03.902Z,100173.46
2023-06-28T09:59:37.367Z,100178.04
2023-06-28T10:02:10.714Z,100177.34
2023-06-28T10:04:39.244Z,100175.36
2023-06-28T10:07:10.184Z,100177.38
2023-06-28T10:09:40.894Z,100181.48
2023-06-28T10:12:18.125Z,100176.88
2023-06-28T10:15:09.497Z,100174.40
2023-06-28T10:17:38.862Z,100177.33
2023-06-28T10:20:08.234Z,100178.80
2023-06-28T10:22:38.176Z,100180.22
2023-06-28T10:25:06.381Z,100182.20
2023-06-28T10:27:35.726Z,100180.83
2023-06-28T10:30:04.065Z,100180.23
2023-06-28T10:32:33.500Z,100180.27
2023-06-28T10:45:17.886Z,100181.84
2023-06-28T10:47:58.086Z,100177.97
2023-06-28T10:50:32.137Z,100181.23
2023-06-28T10:53:07.225Z,100177.37
2023-06-28T10:59:13.968Z,100174.19
2023-06-28T11:01:50.279Z,100179.26
2023-06-28T11:04:23.597Z,100182.79
2023-06-28T11:07:17.358Z,100185.77
2023-06-28T11:10:18.848Z,100182.26
2023-06-28T11:13:05.418Z,100184.33
2023-06-28T11:16:23.051Z,100188.73
2023-06-28T11:19:06.473Z,100187.79
2023-06-28T11:21:50.941Z,100187.27
2023-06-28T11:24:45.012Z,100186.88
2023-06-28T11:27:19.388Z,100189.68
2023-06-28T11:30:01.234Z,100187.36
2023-06-28T11:32:34.079Z,100195.74
2023-06-28T11:35:11.881Z,100186.57
2023-06-28T11:37:43.714Z,100193.73
2023-06-28T11:40:14.889Z,100197.05
2023-06-28T11:42:46.261Z,100194.86
2023-06-28T11:45:21.168Z,100189.99
2023-06-28T11:47:53.383Z,100191.31
2023-06-28T11:50:21.526Z,100190.65
2023-06-28T11:52:52.612Z,100192.42
2023-06-28T11:55:23.960Z,100195.05
2023-06-28T11:58:02.861Z,100194.28
2023-06-28T12:00:41.569Z,100194.98
2023-06-28T12:03:11.558Z,100196.82
2023-06-28T12:05:56.345Z,100199.05
2023-06-28T12:08:29.816Z,100196.88
2023-06-28T12:22:43.031Z,100192.41
2023-06-28T12:25:35.183Z,100198.48
2023-06-28T12:28:32.143Z,100196.50
2023-06-28T12:34:39.652Z,100202.63
2023-06-28T12:37:59.182Z,100195.86
2023-06-28T12:43:31.668Z,100204.15
2023-06-28T12:46:05.314Z,100205.79
2023-06-28T12:48:43.675Z,100206.61
2023-06-28T12:51:22.091Z,100214.63
2023-06-28T12:54:07.370Z,100215.19
2023-06-28T12:56:38.980Z,100218.48
2023-06-28T12:59:14.088Z,100222.65
2023-06-28T13:01:51.582Z,100222.59
2023-06-28T13:04:19.674Z,100223.70
2023-06-28T13:06:47.723Z,100223.98
2023-06-28T13:09:16.972Z,100229.03
2023-06-28T13:11:45.508Z,100227.59
2023-06-28T13:14:26.931Z,100229.59
2023-06-28T13:17:03.103Z,100225.29
2023-06-28T13:19:35.245Z,100224.33
2023-06-28T13:22:03.167Z,100226.23
2023-06-28T13:24:31.533Z,100224.45
2023-06-28T13:27:00.089Z,100228.69
2023-06-28T13:29:29.176Z,100230.87
2023-06-28T13:31:58.370Z,100226.14
2023-06-28T13:34:27.770Z,100224.41
2023-06-28T13:37:26.664Z,100230.36
2023-06-28T13:39:56.907Z,100233.90
2023-06-28T13:42:25.813Z,100232.77
2023-06-28T13:45:02.810Z,100234.46
2023-06-28T13:47:33.508Z,100236.77
2023-06-28T13:50:02.592Z,100238.10
2023-06-28T13:52:31.239Z,100240.83
2023-06-28T13:54:59.335Z,100238.08
2023-06-28T13:57:28.118Z,100239.41
2023-06-28T13:59:57.281Z,100237.36
2023-06-28T14:02:27.835Z,100239.95
2023-06-28T14:04:55.858Z,100244.03
2023-06-28T14:07:23.926Z,100243.61
2023-06-28T14:09:51.895Z,100244.95
2023-06-28T14:12:20.118Z,100244.35
2023-06-28T14:14:48.473Z,100239.36
2023-06-28T14:17:15.846Z,100239.11
2023-06-28T14:19:44.924Z,100242.11
2023-06-28T14:22:13.148Z,100241.62
2023-06-28T14:24:41.126Z,100243.42
2023-06-28T14:27:11.390Z,100242.81
2023-06-28T14:29:55.959Z,100240.51
2023-06-28T14:32:24.374Z,100241.08
2023-06-28T14:34:54.061Z,100241.98
2023-06-28T14:37:22.137Z,100249.80
2023-06-28T14:39:50.828Z,100245.86
2023-06-28T14:42:21.493Z,100246.79
2023-06-28T14:44:52.205Z,100243.81
2023-06-28T14:47:27.467Z,100245.20
2023-06-28T14:49:56.519Z,100244.34
2023-06-28T14:52:32.684Z,100242.59
2023-06-28T14:58:42.893Z,100239.27
2023-06-28T15:04:36.967Z,100239.09
2023-06-28T15:07:06.261Z,100241.87
2023-06-28T15:09:36.373Z,100241.27
2023-06-28T15:12:04.668Z,100246.81
2023-06-28T15:14:37.087Z,100247.34
2023-06-28T15:19:50.252Z,100245.18
2023-06-28T15:22:21.751Z,100249.33
2023-06-28T15:24:55.821Z,100254.94
2023-06-28T15:27:31.743Z,100248.38
2023-06-28T15:30:00.238Z,100249.73
2023-06-28T15:32:28.273Z,100251.38
2023-06-28T15:34:56.463Z,100247.45
2023-06-28T15:37:23.670Z,100250.98
2023-06-28T15:39:52.931Z,100254.16
2023-06-28T15:42:21.276Z,100247.67
2023-06-28T15:44:48.841Z,100247.77
2023-06-28T15:47:18.116Z,100252.31
2023-06-28T15:49:45.912Z,100253.79
2023-06-28T15:52:13.716Z,100250.52
2023-06-28T15:54:44.330Z,100257.77
2023-06-28T15:57:11.910Z,100260.19
2023-06-28T15:59:40.136Z,100256.05
2023-06-28T16:02:09.782Z,100257.13
2023-06-28T16:04:37.756Z,100256.89
2023-06-28T16:07:08.829Z,100257.28
2023-06-28T16:09:36.446Z,100249.56
2023-06-28T16:12:05.961Z,100254.83
2023-06-28T16:14:33.238Z,100257.60
2023-06-28T16:17:03.291Z,100252.58
2023-06-28T16:19:31.132Z,100256.36
2023-06-28T16:21:59.399Z,100260.02
2023-06-28T16:24:28.436Z,100263.36
2023-06-28T16:26:56.310Z,100265.68
2023-06-28T16:29:24.784Z,100268.06
2023-06-28T16:31:52.297Z,100268.79
2023-06-28T16:34:19.675Z,100266.27
2023-06-28T16:36:48.843Z,100270.06
2023-06-28T16:39:16.488Z,100265.45
2023-06-28T16:41:44.493Z,100263.94
2023-06-28T16:44:11.879Z,100262.16
2023-06-28T16:46:40.322Z,100271.42
2023-06-28T16:49:07.687Z,100272.46
2023-06-28T16:51:35.148Z,100278.20
2023-06-28T16:54:03.122Z,100276.09
2023-06-28T16:56:30.668Z,100279.26
2023-06-28T16:58:57.931Z,100274.00
2023-06-28T17:01:25.495Z,100272.18
2023-06-28T17:03:53.035Z,100274.18
2023-06-28T17:06:21.422Z,100273.42
2023-06-28T17:08:48.913Z,100274.76
2023-06-28T17:11:18.076Z,100275.52
2023-06-28T17:13:47.238Z,100279.17
2023-06-28T17:16:15.378Z,100277.16
2023-06-28T17:18:43.823Z,100275.19
2023-06-28T17:21:12.238Z,100275.89
2023-06-28T17:23:46.109Z,100275.91
2023-06-28T17:26:17.236Z,100275.77
2023-06-28T17:31:50.184Z,100272.49
2023-06-28T17:34:22.444Z,100271.06
2023-06-28T17:37:55.288Z,100275.23
2023-06-28T17:40:23.324Z,100278.86
2023-06-28T17:43:15.298Z,100287.02
2023-06-28T17:45:46.964Z,100290.02
2023-06-28T17:48:14.777Z,100292.89
2023-06-28T17:50:45.056Z,100293.77
2023-06-28T17:53:14.340Z,100291.35
2023-06-28T17:55:41.892Z,100294.00
2023-06-28T17:58:10.121Z,100300.30
2023-06-28T18:00:42.188Z,100298.17
2023-06-28T18:03:12.068Z,100299.42
2023-06-28T18:05:39.499Z,100294.11
2023-06-28T18:08:09.794Z,100303.59
2023-06-28T18:10:41.118Z,100304.67
2023-06-28T18:13:11.717Z,100308.58
2023-06-28T18:15:47.450Z,100312.92
2023-06-28T18:18:19.871Z,100308.34
2023-06-28T18:21:03.119Z,100310.55
2023-06-28T18:23:33.397Z,100313.30
2023-06-28T18:26:01.006Z,100311.02
2023-06-28T18:28:29.113Z,100312.98
2023-06-28T18:30:56.633Z,100312.95
2023-06-28T18:33:27.713Z,100316.70
2023-06-28T18:35:55.131Z,100319.14
2023-06-28T18:38:26.073Z,100325.44
2023-06-28T18:40:59.525Z,100329.00
2023-06-28T18:43:37.628Z,100335.81
2023-06-28T18:46:17.898Z,100337.78
2023-06-28T18:48:53.275Z,100338.05
2023-06-28T18:51:35.774Z,100340.59
2023-06-28T18:54:18.650Z,100344.94
2023-06-28T18:56:48.921Z,100349.16
2023-06-28T18:59:16.607Z,100349.21
2023-06-28T19:02:05.412Z,100351.48
2023-06-28T19:04:39.344Z,100356.04
2023-06-28T19:07:24.246Z,100360.70
2023-06-28T19:09:58.260Z,100363.55
2023-06-28T19:12:32.057Z,100366.98
2023-06-28T19:15:05.546Z,100370.20
2023-06-28T19:17:45.671Z,100370.47
2023-06-28T19:20:19.618Z,100378.76
2023-06-28T19:22:59.316Z,100378.27
2023-06-28T19:25:33.928Z,100382.84
2023-06-28T19:28:09.068Z,100387.23
2023-06-28T19:30:37.705Z,100390.60
2023-06-28T19:33:32.410Z,100394.48
2023-06-28T19:36:06.877Z,100394.36
2023-06-28T19:38:54.519Z,100397.90
2023-06-28T19:46:21.937Z,100396.77
2023-06-28T19:49:33.533Z,100397.15
